Atlas — SV6729 — position and weather

sailwx.info

Track history (hours):
 
Tides and Currents Weather Stations Pressure Air Temp Water Temp Dewpoint Dewpoint Depression Visibility Wind Speed Wind Dir Waves Ship Positions

Atlas

Last reported at 2014-Jul-24 17:33 UTC. Time now 2014-Jul-24 17:50 UTC.
Position N 38°02' E 023°30'.

Length 29 m; draft 5 m.

Type: Tug. MMSI: 239611000.

Date/timePositionNaut miles runAvg speedWind from/ knotsBaromVisibWave heightAir tempDewpointWater temp
2014-Jul-24 17:33N 38°02' E 023°30'5 4.9
2014-Jul-24 16:29N 37°59' E 023°25'7 5.6
2014-Jul-24 15:13N 37°54' E 023°18'2 2.7
2014-Jul-24 14:26N 37°52' E 023°16'3 1.6
2014-Jul-24 12:19N 37°53' E 023°20'4 5.6
2014-Jul-24 11:33N 37°49' E 023°19'3 2.3
2014-Jul-24 10:15N 37°51' E 023°17'3 2.9
2014-Jul-24 09:19N 37°52' E 023°20'6 7.8
2014-Jul-24 08:31N 37°47' E 023°16'1 1.4
2014-Jul-24 07:28N 37°46' E 023°14'12 6.0
2014-Jul-24 05:29N 37°56' E 023°23'7 7.7
2014-Jul-24 04:32N 38°01' E 023°29'1 1.1
2014-Jul-24 03:33N 38°02' E 023°30'4 3.4
2014-Jul-24 02:29N 37°59' E 023°33'2 0.3
2014-Jul-23 17:34N 37°57' E 023°35'6 6.0
2014-Jul-23 16:33N 38°02' E 023°30'4 3.2
2014-Jul-23 15:15N 37°60' E 023°26'10 6.0
2014-Jul-23 13:32N 37°51' E 023°18'2 2.2
2014-Jul-23 12:31N 37°52' E 023°21'2 1.6
2014-Jul-23 11:34N 37°51' E 023°22'6 2.8
2014-Jul-23 09:31N 37°57' E 023°23'2 2.0
2014-Jul-23 08:33N 37°58' E 023°25'5 5.2
2014-Jul-23 07:34N 38°01' E 023°30'1 0.6
2014-Jul-23 06:33N 38°02' E 023°30'0 0.1
2014-Jul-23 05:30N 38°02' E 023°30'7 0.7
2014-Jul-22 20:25N 37°57' E 023°36'1 0.8
2014-Jul-22 19:33N 37°57' E 023°36'1 0.9
2014-Jul-22 18:34N 37°57' E 023°36'0 0.2
2014-Jul-22 17:33N 37°57' E 023°37'0 0.0
2014-Jul-22 16:33N 37°57' E 023°37'0 0.0
2014-Jul-22 15:33N 37°57' E 023°37'0 0.0
2014-Jul-22 14:32N 37°57' E 023°37'1 1.1
2014-Jul-22 13:33N 37°57' E 023°35'1 0.9
2014-Jul-22 12:25N 37°57' E 023°37'1 1.0
2014-Jul-22 11:32N 37°57' E 023°36'1 0.9
2014-Jul-22 10:33N 37°57' E 023°37'0 0.0
2014-Jul-22 09:33N 37°57' E 023°37'0 0.0
2014-Jul-22 08:34N 37°57' E 023°37'0 0.0
2014-Jul-22 07:33N 37°57' E 023°37'1 0.8
2014-Jul-22 06:33N 37°57' E 023°36'0 0.3
2014-Jul-22 05:33N 37°57' E 023°36'0 0.0
2014-Jul-21 21:33N 37°57' E 023°36'0 0.2
2014-Jul-21 20:34N 37°57' E 023°36'1 2.6
2014-Jul-21 20:18N 37°57' E 023°37'0 0.0
2014-Jul-21 19:33N 37°57' E 023°37'0 0.0
2014-Jul-21 18:34N 37°57' E 023°37'0 0.0
2014-Jul-21 17:33N 37°57' E 023°37'0 0.3
2014-Jul-21 16:33N 37°58' E 023°36'0 0.3
2014-Jul-21 15:33N 37°57' E 023°37'0 0.0
2014-Jul-21 14:33N 37°57' E 023°37'0 0.0
2014-Jul-21 13:33N 37°57' E 023°37'0 0.0
2014-Jul-21 12:34N 37°57' E 023°37'0 0.2
2014-Jul-21 11:33N 37°57' E 023°36'1 0.1
2014-Jul-20 15:22N 37°57' E 023°35'7 0.3
2014-Jul-19 13:33N 38°02' E 023°30'0 0.0
2014-Jul-19 12:33N 38°02' E 023°30'0 0.0
2014-Jul-19 11:33N 38°02' E 023°30'0 0.0
2014-Jul-19 10:33N 38°02' E 023°30'0 0.0
2014-Jul-19 09:33N 38°02' E 023°30'0 0.0
2014-Jul-19 08:33N 38°02' E 023°30'0 0.0
2014-Jul-19 07:33N 38°02' E 023°30'0 0.0
2014-Jul-19 06:33N 38°02' E 023°30'0 0.0
2014-Jul-19 05:33N 38°02' E 023°30'7 0.3
2014-Jul-18 04:33N 37°57' E 023°36'1 0.0
2014-Jul-17 13:18N 37°57' E 023°36'1 0.7
2014-Jul-17 12:27N 37°57' E 023°36'0 0.1
2014-Jul-17 11:33N 37°57' E 023°36'1 0.6
2014-Jul-17 10:33N 37°57' E 023°37'0 0.0
2014-Jul-17 09:33N 37°57' E 023°37'0 0.0
2014-Jul-17 08:33N 37°57' E 023°37'0 0.0
2014-Jul-17 07:33N 37°57' E 023°37'0 0.2
2014-Jul-17 06:34N 37°57' E 023°36'5 5.3
2014-Jul-17 05:33N 38°02' E 023°33'1 0.6
2014-Jul-17 04:27N 38°02' E 023°32'5 6.0
2014-Jul-17 03:33N 37°57' E 023°34'2 0.2
2014-Jul-16 17:29N 37°57' E 023°36'0 0.5
2014-Jul-16 16:33N 37°57' E 023°36'0 0.1
2014-Jul-16 15:33N 37°57' E 023°36'0 0.3
2014-Jul-16 14:33N 37°57' E 023°36'0 0.0
2014-Jul-16 13:34N 37°57' E 023°36'0 0.5
2014-Jul-16 12:33N 37°56' E 023°36'1 0.9
2014-Jul-16 11:33N 37°57' E 023°37'0 0.3
2014-Jul-16 10:32N 37°58' E 023°36'0 0.3
2014-Jul-16 09:33N 37°57' E 023°37'0 0.0
2014-Jul-16 08:33N 37°57' E 023°37'0 0.0
2014-Jul-16 07:33N 37°57' E 023°37'0 0.0
2014-Jul-16 06:33N 37°57' E 023°37'0 0.0
2014-Jul-16 05:32N 37°57' E 023°37'1 0.7
2014-Jul-16 04:33N 37°57' E 023°36'0 0.0
2014-Jul-15 11:08N 37°57' E 023°36'1 0.7
2014-Jul-15 10:25N 37°57' E 023°36'0 0.4
2014-Jul-15 09:33N 37°57' E 023°37'0 0.0
2014-Jul-15 08:33N 37°57' E 023°37'0 0.0
2014-Jul-15 07:33N 37°57' E 023°37'0 0.0
2014-Jul-15 06:33N 37°57' E 023°37'0 0.0
2014-Jul-15 05:33N 37°57' E 023°37'1 0.6
2014-Jul-15 04:33N 37°57' E 023°36'0 0.2
2014-Jul-15 03:33N 37°57' E 023°36'  
Track history (hours):
 
Tides and Currents Weather Stations Pressure Air Temp Water Temp Dewpoint Dewpoint Depression Visibility Wind Speed Wind Dir Waves Ship Positions

Atlas

Last reported at 2014-Jul-24 17:33 UTC. Time now 2014-Jul-24 17:50 UTC.
Position N 38°02' E 023°30'.

Length 29 m; draft 5 m.

Type: Tug. MMSI: 239611000.

Date/timePositionNaut miles runAvg speedWind from/ knotsBaromVisibWave heightAir tempDewpointWater temp
2014-Jul-24 17:33N 38°02' E 023°30'5 4.9
2014-Jul-24 16:29N 37°59' E 023°25'7 5.6
2014-Jul-24 15:13N 37°54' E 023°18'2 2.7
2014-Jul-24 14:26N 37°52' E 023°16'3 1.6
2014-Jul-24 12:19N 37°53' E 023°20'4 5.6
2014-Jul-24 11:33N 37°49' E 023°19'3 2.3
2014-Jul-24 10:15N 37°51' E 023°17'3 2.9
2014-Jul-24 09:19N 37°52' E 023°20'6 7.8
2014-Jul-24 08:31N 37°47' E 023°16'1 1.4
2014-Jul-24 07:28N 37°46' E 023°14'12 6.0
2014-Jul-24 05:29N 37°56' E 023°23'7 7.7
2014-Jul-24 04:32N 38°01' E 023°29'1 1.1
2014-Jul-24 03:33N 38°02' E 023°30'4 3.4
2014-Jul-24 02:29N 37°59' E 023°33'2 0.3
2014-Jul-23 17:34N 37°57' E 023°35'6 6.0
2014-Jul-23 16:33N 38°02' E 023°30'4 3.2
2014-Jul-23 15:15N 37°60' E 023°26'10 6.0
2014-Jul-23 13:32N 37°51' E 023°18'2 2.2
2014-Jul-23 12:31N 37°52' E 023°21'2 1.6
2014-Jul-23 11:34N 37°51' E 023°22'6 2.8
2014-Jul-23 09:31N 37°57' E 023°23'2 2.0
2014-Jul-23 08:33N 37°58' E 023°25'5 5.2
2014-Jul-23 07:34N 38°01' E 023°30'1 0.6
2014-Jul-23 06:33N 38°02' E 023°30'0 0.1
2014-Jul-23 05:30N 38°02' E 023°30'7 0.7
2014-Jul-22 20:25N 37°57' E 023°36'1 0.8
2014-Jul-22 19:33N 37°57' E 023°36'1 0.9
2014-Jul-22 18:34N 37°57' E 023°36'0 0.2
2014-Jul-22 17:33N 37°57' E 023°37'0 0.0
2014-Jul-22 16:33N 37°57' E 023°37'0 0.0
2014-Jul-22 15:33N 37°57' E 023°37'0 0.0
2014-Jul-22 14:32N 37°57' E 023°37'1 1.1
2014-Jul-22 13:33N 37°57' E 023°35'1 0.9
2014-Jul-22 12:25N 37°57' E 023°37'1 1.0
2014-Jul-22 11:32N 37°57' E 023°36'1 0.9
2014-Jul-22 10:33N 37°57' E 023°37'0 0.0
2014-Jul-22 09:33N 37°57' E 023°37'0 0.0
2014-Jul-22 08:34N 37°57' E 023°37'0 0.0
2014-Jul-22 07:33N 37°57' E 023°37'1 0.8
2014-Jul-22 06:33N 37°57' E 023°36'0 0.3
2014-Jul-22 05:33N 37°57' E 023°36'0 0.0
2014-Jul-21 21:33N 37°57' E 023°36'0 0.2
2014-Jul-21 20:34N 37°57' E 023°36'1 2.6
2014-Jul-21 20:18N 37°57' E 023°37'0 0.0
2014-Jul-21 19:33N 37°57' E 023°37'0 0.0
2014-Jul-21 18:34N 37°57' E 023°37'0 0.0
2014-Jul-21 17:33N 37°57' E 023°37'0 0.3
2014-Jul-21 16:33N 37°58' E 023°36'0 0.3
2014-Jul-21 15:33N 37°57' E 023°37'0 0.0
2014-Jul-21 14:33N 37°57' E 023°37'0 0.0
2014-Jul-21 13:33N 37°57' E 023°37'0 0.0
2014-Jul-21 12:34N 37°57' E 023°37'0 0.2
2014-Jul-21 11:33N 37°57' E 023°36'1 0.1
2014-Jul-20 15:22N 37°57' E 023°35'7 0.3
2014-Jul-19 13:33N 38°02' E 023°30'0 0.0
2014-Jul-19 12:33N 38°02' E 023°30'0 0.0
2014-Jul-19 11:33N 38°02' E 023°30'0 0.0
2014-Jul-19 10:33N 38°02' E 023°30'0 0.0
2014-Jul-19 09:33N 38°02' E 023°30'0 0.0
2014-Jul-19 08:33N 38°02' E 023°30'0 0.0
2014-Jul-19 07:33N 38°02' E 023°30'0 0.0
2014-Jul-19 06:33N 38°02' E 023°30'0 0.0
2014-Jul-19 05:33N 38°02' E 023°30'7 0.3
2014-Jul-18 04:33N 37°57' E 023°36'1 0.0
2014-Jul-17 13:18N 37°57' E 023°36'1 0.7
2014-Jul-17 12:27N 37°57' E 023°36'0 0.1
2014-Jul-17 11:33N 37°57' E 023°36'1 0.6
2014-Jul-17 10:33N 37°57' E 023°37'0 0.0
2014-Jul-17 09:33N 37°57' E 023°37'0 0.0
2014-Jul-17 08:33N 37°57' E 023°37'0 0.0
2014-Jul-17 07:33N 37°57' E 023°37'0 0.2
2014-Jul-17 06:34N 37°57' E 023°36'5 5.3
2014-Jul-17 05:33N 38°02' E 023°33'1 0.6
2014-Jul-17 04:27N 38°02' E 023°32'5 6.0
2014-Jul-17 03:33N 37°57' E 023°34'2 0.2
2014-Jul-16 17:29N 37°57' E 023°36'0 0.5
2014-Jul-16 16:33N 37°57' E 023°36'0 0.1
2014-Jul-16 15:33N 37°57' E 023°36'0 0.3
2014-Jul-16 14:33N 37°57' E 023°36'0 0.0
2014-Jul-16 13:34N 37°57' E 023°36'0 0.5
2014-Jul-16 12:33N 37°56' E 023°36'1 0.9
2014-Jul-16 11:33N 37°57' E 023°37'0 0.3
2014-Jul-16 10:32N 37°58' E 023°36'0 0.3
2014-Jul-16 09:33N 37°57' E 023°37'0 0.0
2014-Jul-16 08:33N 37°57' E 023°37'0 0.0
2014-Jul-16 07:33N 37°57' E 023°37'0 0.0
2014-Jul-16 06:33N 37°57' E 023°37'0 0.0
2014-Jul-16 05:32N 37°57' E 023°37'1 0.7
2014-Jul-16 04:33N 37°57' E 023°36'0 0.0
2014-Jul-15 11:08N 37°57' E 023°36'1 0.7
2014-Jul-15 10:25N 37°57' E 023°36'0 0.4
2014-Jul-15 09:33N 37°57' E 023°37'0 0.0
2014-Jul-15 08:33N 37°57' E 023°37'0 0.0
2014-Jul-15 07:33N 37°57' E 023°37'0 0.0
2014-Jul-15 06:33N 37°57' E 023°37'0 0.0
2014-Jul-15 05:33N 37°57' E 023°37'1 0.6
2014-Jul-15 04:33N 37°57' E 023°36'0 0.2
2014-Jul-15 03:33N 37°57' E 023°36'  

Dump ship's entire track history